createdAt,value
2018-12-07T00:00:17.193Z,54.93
2018-12-07T00:02:45.619Z,52.53
2018-12-07T00:05:14.091Z,46.67
2018-12-07T00:07:42.536Z,46.43
2018-12-07T00:10:11.118Z,49.00
2018-12-07T00:12:39.571Z,50.30
2018-12-07T00:15:08.120Z,48.00
2018-12-07T00:17:36.568Z,43.53
2018-12-07T00:20:05.947Z,48.00
2018-12-07T00:22:34.369Z,48.57
2018-12-07T00:25:02.791Z,50.10
2018-12-07T00:27:31.774Z,45.80
2018-12-07T00:30:01.256Z,42.20
2018-12-07T00:32:29.901Z,42.37
2018-12-07T00:34:58.503Z,49.37
2018-12-07T00:37:27.211Z,53.70
2018-12-07T00:39:55.639Z,46.13
2018-12-07T00:42:24.059Z,43.93
2018-12-07T00:44:52.504Z,47.43
2018-12-07T00:47:20.948Z,42.03
2018-12-07T00:49:49.420Z,46.83
2018-12-07T00:52:35.188Z,52.30
2018-12-07T00:55:03.759Z,44.53
2018-12-07T00:57:32.182Z,44.97
2018-12-07T01:00:00.660Z,42.73
2018-12-07T01:02:29.799Z,44.17
2018-12-07T01:04:58.350Z,43.77
2018-12-07T01:07:26.818Z,45.27
2018-12-07T01:09:55.237Z,44.47
2018-12-07T01:12:23.707Z,43.47
2018-12-07T01:14:52.188Z,43.73
2018-12-07T01:17:20.623Z,40.63
2018-12-07T01:19:49.107Z,37.70
2018-12-07T01:22:17.517Z,37.83
2018-12-07T01:24:46.011Z,39.37
2018-12-07T01:27:14.471Z,46.40
2018-12-07T01:29:42.909Z,42.03
2018-12-07T01:32:11.322Z,43.43
2018-12-07T01:34:39.810Z,39.03
2018-12-07T01:37:08.515Z,39.27
2018-12-07T01:39:37.032Z,41.23
2018-12-07T01:42:05.500Z,40.20
2018-12-07T01:44:33.971Z,35.63
2018-12-07T01:47:02.419Z,44.87
2018-12-07T01:49:30.851Z,40.73
2018-12-07T01:51:59.310Z,44.67
2018-12-07T01:54:27.792Z,39.30
2018-12-07T01:56:56.236Z,39.97
2018-12-07T01:59:24.668Z,39.10
2018-12-07T02:01:53.113Z,38.27
2018-12-07T02:04:21.546Z,38.47
2018-12-07T02:06:49.986Z,37.23
2018-12-07T02:09:18.446Z,37.63
2018-12-07T02:11:46.860Z,34.77
2018-12-07T02:14:15.361Z,38.53
2018-12-07T02:16:43.828Z,37.33
2018-12-07T02:19:12.260Z,40.47
2018-12-07T02:21:40.740Z,36.37
2018-12-07T02:24:09.192Z,40.03
2018-12-07T02:26:37.649Z,42.57
2018-12-07T02:29:06.116Z,43.70
2018-12-07T02:31:34.540Z,42.03
2018-12-07T02:34:03.002Z,40.80
2018-12-07T02:36:31.438Z,41.80
2018-12-07T02:38:59.874Z,43.80
2018-12-07T02:41:28.344Z,42.17
2018-12-07T02:43:56.781Z,43.20
2018-12-07T02:46:25.267Z,40.67
2018-12-07T02:48:53.700Z,41.03
2018-12-07T02:51:22.108Z,42.07
2018-12-07T02:53:50.567Z,41.07
2018-12-07T02:56:18.999Z,40.00
2018-12-07T02:58:47.437Z,42.53
2018-12-07T03:01:15.908Z,43.57
2018-12-07T03:03:44.348Z,46.10
2018-12-07T03:06:12.816Z,42.97
2018-12-07T03:08:41.238Z,42.17
2018-12-07T03:11:09.672Z,47.20
2018-12-07T03:13:38.108Z,43.30
2018-12-07T03:16:06.581Z,43.33
2018-12-07T03:18:35.026Z,43.60
2018-12-07T03:21:03.441Z,41.70
2018-12-07T03:23:32.279Z,44.20
2018-12-07T03:26:00.783Z,44.77
2018-12-07T03:28:29.276Z,39.53
2018-12-07T03:30:58.068Z,44.87
2018-12-07T03:33:26.503Z,44.10
2018-12-07T03:35:54.946Z,45.20
2018-12-07T03:38:23.646Z,44.20
2018-12-07T03:40:52.093Z,42.80
2018-12-07T03:43:20.556Z,47.23
2018-12-07T03:45:49.028Z,40.90
2018-12-07T03:48:17.450Z,44.60
2018-12-07T03:50:46.006Z,43.23
2018-12-07T03:53:14.472Z,40.77
2018-12-07T03:55:42.899Z,39.67
2018-12-07T03:58:11.868Z,40.73
2018-12-07T04:00:41.163Z,42.43
2018-12-07T04:03:09.634Z,40.20
2018-12-07T04:05:38.210Z,42.73
2018-12-07T04:08:07.412Z,45.27
2018-12-07T04:10:35.819Z,42.47
2018-12-07T04:13:04.266Z,41.93
2018-12-07T04:15:32.829Z,39.63
2018-12-07T04:18:01.331Z,39.40
2018-12-07T04:20:29.780Z,40.07
2018-12-07T04:22:58.214Z,38.63
2018-12-07T04:25:26.689Z,41.47
2018-12-07T04:27:55.189Z,43.17
2018-12-07T04:30:24.662Z,47.47
2018-12-07T04:32:53.169Z,42.97
2018-12-07T04:35:21.652Z,45.43
2018-12-07T04:37:50.154Z,45.40
2018-12-07T04:40:18.583Z,48.23
2018-12-07T04:42:47.397Z,46.33
2018-12-07T04:45:15.958Z,45.00
2018-12-07T04:47:44.530Z,43.00
2018-12-07T04:50:12.971Z,44.70
2018-12-07T04:52:41.436Z,46.10
2018-12-07T04:55:09.891Z,41.27
2018-12-07T04:57:38.298Z,42.87
2018-12-07T05:00:07.936Z,46.43
2018-12-07T05:02:36.401Z,42.47
2018-12-07T05:05:05.125Z,44.87
2018-12-07T05:07:33.617Z,47.13
2018-12-07T05:10:02.074Z,47.00
2018-12-07T05:12:30.498Z,41.23
2018-12-07T05:14:59.776Z,53.70
2018-12-07T05:17:28.211Z,53.17
2018-12-07T05:19:56.710Z,50.57
2018-12-07T05:22:25.118Z,45.40
2018-12-07T05:24:53.560Z,41.83
2018-12-07T05:27:22.025Z,44.60
2018-12-07T05:29:50.537Z,44.50
2018-12-07T05:32:18.969Z,43.00
2018-12-07T05:34:47.450Z,45.13
2018-12-07T05:37:15.892Z,41.47
2018-12-07T05:39:44.604Z,61.13
2018-12-07T05:42:13.041Z,45.43
2018-12-07T05:44:41.478Z,40.27
2018-12-07T05:47:10.605Z,47.00
2018-12-07T05:49:39.067Z,41.80
2018-12-07T05:52:07.486Z,44.47
2018-12-07T05:54:35.989Z,44.50
2018-12-07T05:57:04.427Z,41.53
2018-12-07T05:59:32.883Z,43.73
2018-12-07T06:02:01.408Z,45.30
2018-12-07T06:04:29.877Z,45.00
2018-12-07T06:06:58.316Z,44.33
2018-12-07T06:09:26.789Z,46.27
2018-12-07T06:11:55.256Z,43.37
2018-12-07T06:14:23.770Z,50.50
2018-12-07T06:16:52.285Z,46.07
2018-12-07T06:19:20.726Z,42.90
2018-12-07T06:21:49.585Z,44.50
2018-12-07T06:24:18.408Z,46.80
2018-12-07T06:26:47.433Z,45.00
2018-12-07T06:29:15.947Z,49.80
2018-12-07T06:31:44.411Z,43.53
2018-12-07T06:34:13.091Z,44.73
2018-12-07T06:36:41.911Z,47.73
2018-12-07T06:39:10.584Z,57.80
2018-12-07T06:41:39.042Z,59.50
2018-12-07T06:44:07.548Z,48.53
2018-12-07T06:46:36.007Z,49.40
2018-12-07T06:49:07.755Z,44.60
2018-12-07T06:51:36.205Z,44.57
2018-12-07T06:54:04.919Z,45.27
2018-12-07T06:56:33.416Z,42.00
2018-12-07T06:59:01.888Z,46.93
2018-12-07T07:01:30.351Z,44.23
2018-12-07T07:03:58.801Z,41.87
2018-12-07T07:06:27.256Z,41.03
2018-12-07T07:08:55.724Z,40.40
2018-12-07T07:11:24.141Z,41.63
2018-12-07T07:13:52.645Z,42.47
2018-12-07T07:16:23.259Z,44.57
2018-12-07T07:18:51.602Z,44.33
2018-12-07T07:21:20.163Z,91.47
2018-12-07T07:23:48.636Z,44.77
2018-12-07T07:26:17.094Z,45.17
2018-12-07T07:28:45.553Z,45.93
2018-12-07T07:31:14.313Z,45.30
2018-12-07T07:33:42.801Z,47.50
2018-12-07T07:36:11.239Z,42.80
2018-12-07T07:38:39.936Z,41.40
2018-12-07T07:41:08.425Z,44.50
2018-12-07T07:43:36.888Z,47.87
2018-12-07T07:46:05.332Z,41.60
2018-12-07T07:48:33.792Z,45.40
2018-12-07T07:51:02.233Z,49.60
2018-12-07T07:53:31.083Z,45.00
2018-12-07T07:55:59.590Z,45.43
2018-12-07T07:58:28.260Z,47.07
2018-12-07T08:00:56.742Z,43.47
2018-12-07T08:03:25.217Z,50.17
2018-12-07T08:05:53.681Z,41.87
2018-12-07T08:08:22.163Z,43.60
2018-12-07T08:10:50.655Z,43.30
2018-12-07T08:13:19.106Z,44.53
2018-12-07T08:15:47.566Z,41.53
2018-12-07T08:18:16.044Z,45.03
2018-12-07T08:20:44.497Z,66.20
2018-12-07T08:23:14.878Z,67.63
2018-12-07T08:25:43.465Z,46.97
2018-12-07T08:28:11.910Z,46.43
2018-12-07T08:30:40.327Z,45.17
2018-12-07T08:33:08.812Z,43.00
2018-12-07T08:35:37.297Z,44.47
2018-12-07T08:38:05.741Z,48.53
2018-12-07T08:40:34.221Z,102.23
2018-12-07T08:43:02.897Z,45.90
2018-12-07T08:45:31.719Z,45.80
2018-12-07T08:48:00.246Z,42.70
2018-12-07T08:50:29.630Z,43.53
2018-12-07T08:52:58.785Z,41.67
2018-12-07T08:55:27.286Z,42.33
2018-12-07T08:57:55.796Z,40.90
2018-12-07T09:00:24.277Z,36.10
2018-12-07T09:02:52.705Z,42.00
2018-12-07T09:05:21.173Z,44.50
2018-12-07T09:07:49.585Z,38.57
2018-12-07T09:10:17.999Z,44.40
2018-12-07T09:12:46.504Z,44.83
2018-12-07T09:15:14.971Z,39.30
2018-12-07T09:17:43.456Z,39.67
2018-12-07T09:20:11.933Z,46.20
2018-12-07T09:22:40.370Z,47.87
2018-12-07T09:25:08.945Z,43.40
2018-12-07T09:27:37.369Z,42.50
2018-12-07T09:30:05.927Z,41.50
2018-12-07T09:32:34.385Z,45.00
2018-12-07T09:35:05.049Z,44.97
2018-12-07T09:37:33.483Z,41.17
2018-12-07T09:40:04.192Z,44.80
2018-12-07T09:42:32.646Z,47.43
2018-12-07T09:45:01.108Z,45.53
2018-12-07T09:47:29.874Z,42.97
2018-12-07T09:49:58.333Z,48.10
2018-12-07T09:52:27.005Z,48.73
2018-12-07T09:54:55.769Z,54.13
2018-12-07T09:57:25.025Z,55.20
2018-12-07T09:59:53.533Z,59.93
2018-12-07T10:02:22.184Z,51.23
2018-12-07T10:04:50.700Z,44.87
2018-12-07T10:07:19.184Z,78.37
2018-12-07T10:09:47.624Z,54.97
2018-12-07T10:12:16.085Z,47.20
2018-12-07T10:14:44.816Z,46.20
2018-12-07T10:17:14.077Z,46.77
2018-12-07T10:19:43.540Z,45.87
2018-12-07T10:22:12.250Z,49.13
2018-12-07T10:24:42.995Z,42.67
2018-12-07T10:27:11.421Z,46.07
2018-12-07T10:29:40.817Z,37.03
2018-12-07T10:32:09.246Z,39.03
2018-12-07T10:34:37.687Z,40.77
2018-12-07T10:37:06.160Z,41.23
2018-12-07T10:39:34.982Z,35.87
2018-12-07T10:42:03.426Z,40.07
2018-12-07T10:44:31.913Z,46.50
2018-12-07T10:47:00.374Z,37.83
2018-12-07T10:49:30.606Z,37.60
2018-12-07T10:52:00.850Z,42.63
2018-12-07T10:54:29.567Z,33.20
2018-12-07T10:57:00.096Z,37.40
2018-12-07T10:59:28.597Z,35.10
2018-12-07T11:02:02.639Z,36.33
2018-12-07T11:04:36.804Z,34.87
2018-12-07T11:07:11.011Z,29.00
2018-12-07T11:12:49.877Z,30.20
2018-12-07T11:15:24.338Z,32.67
2018-12-07T11:17:58.769Z,35.67
2018-12-07T11:20:33.305Z,32.40
2018-12-07T11:23:07.461Z,33.93
2018-12-07T11:25:42.425Z,31.33
2018-12-07T11:28:16.463Z,36.20
2018-12-07T11:33:49.727Z,29.97
2018-12-07T11:36:18.856Z,46.10
2018-12-07T11:38:48.197Z,32.13
2018-12-07T11:41:17.101Z,36.87
2018-12-07T11:43:45.565Z,33.53
2018-12-07T11:46:14.066Z,32.13
2018-12-07T11:48:44.385Z,33.67
2018-12-07T11:51:13.518Z,36.40
2018-12-07T11:53:42.066Z,33.57
2018-12-07T11:56:10.556Z,33.13
2018-12-07T11:58:39.013Z,35.67
2018-12-07T12:01:07.935Z,35.07
2018-12-07T12:03:36.424Z,37.43
2018-12-07T12:06:04.889Z,36.03
2018-12-07T12:08:33.338Z,34.20
2018-12-07T12:11:04.164Z,33.80
2018-12-07T12:13:32.857Z,30.73
2018-12-07T12:16:01.588Z,30.67
2018-12-07T12:18:30.117Z,35.73
2018-12-07T12:20:59.105Z,30.23
2018-12-07T12:23:28.205Z,36.20
2018-12-07T12:25:56.693Z,34.43
2018-12-07T12:28:25.121Z,35.67
2018-12-07T12:30:53.549Z,34.33
2018-12-07T12:33:22.596Z,30.03
2018-12-07T12:35:51.956Z,32.93
2018-12-07T12:38:23.005Z,25.63
2018-12-07T12:40:51.758Z,32.33
2018-12-07T12:43:20.210Z,30.30
2018-12-07T12:45:49.344Z,28.00
2018-12-07T12:48:18.432Z,27.30
2018-12-07T12:50:47.706Z,26.57
2018-12-07T12:53:16.154Z,26.90
2018-12-07T12:55:44.640Z,42.10
2018-12-07T12:58:13.105Z,23.60
2018-12-07T13:00:41.554Z,26.27
2018-12-07T13:03:10.029Z,27.10
2018-12-07T13:05:38.492Z,24.63
2018-12-07T13:08:07.973Z,26.20
2018-12-07T13:10:36.468Z,26.60
2018-12-07T13:13:04.925Z,23.73
2018-12-07T13:15:33.332Z,20.70
2018-12-07T13:18:03.703Z,16.83
2018-12-07T13:20:32.128Z,18.17
2018-12-07T13:23:02.949Z,16.57
2018-12-07T13:25:31.420Z,18.00
2018-12-07T13:28:01.389Z,14.03
2018-12-07T13:30:29.846Z,13.03
2018-12-07T13:33:00.033Z,16.93
2018-12-07T13:35:28.743Z,19.33
2018-12-07T13:37:57.213Z,17.20
2018-12-07T13:40:25.859Z,19.03
2018-12-07T13:42:54.787Z,21.43
2018-12-07T13:45:23.916Z,21.17
2018-12-07T13:47:52.821Z,24.73
2018-12-07T13:50:26.904Z,22.13
2018-12-07T13:52:55.649Z,19.87
2018-12-07T13:55:24.211Z,19.90
2018-12-07T13:57:53.691Z,19.93
2018-12-07T14:00:22.249Z,17.50
2018-12-07T14:02:50.914Z,21.33
2018-12-07T14:05:19.482Z,19.73
2018-12-07T14:07:48.130Z,21.33
2018-12-07T14:10:16.773Z,21.33
2018-12-07T14:12:45.553Z,22.30
2018-12-07T14:15:14.368Z,21.77
2018-12-07T14:17:43.786Z,26.33
2018-12-07T14:20:12.986Z,29.43
2018-12-07T14:22:41.670Z,25.57
2018-12-07T14:25:10.202Z,23.77
2018-12-07T14:27:41.967Z,29.93
2018-12-07T14:30:12.508Z,26.10
2018-12-07T14:32:43.280Z,23.53
2018-12-07T14:35:11.910Z,21.47
2018-12-07T14:37:40.592Z,23.87
2018-12-07T14:40:10.179Z,23.23
2018-12-07T14:42:38.783Z,26.03
2018-12-07T14:45:07.759Z,22.77
2018-12-07T14:47:37.440Z,22.93
2018-12-07T14:50:06.285Z,29.20
2018-12-07T14:52:35.290Z,24.67
2018-12-07T14:55:04.813Z,20.93
2018-12-07T14:57:33.687Z,16.87
2018-12-07T15:00:02.382Z,16.77
2018-12-07T15:02:30.857Z,16.73
2018-12-07T15:04:59.685Z,14.90
2018-12-07T15:07:28.262Z,16.60
2018-12-07T15:09:56.888Z,16.63
2018-12-07T15:12:25.513Z,14.83
2018-12-07T15:14:54.057Z,15.03
2018-12-07T15:17:22.705Z,19.87
2018-12-07T15:19:51.352Z,26.00
2018-12-07T15:22:20.029Z,19.37
2018-12-07T15:24:49.676Z,25.30
2018-12-07T15:27:18.405Z,21.53
2018-12-07T15:29:46.919Z,29.77
2018-12-07T15:32:15.870Z,29.10
2018-12-07T15:34:45.551Z,27.37
2018-12-07T15:37:14.754Z,38.30
2018-12-07T15:39:43.268Z,42.20
2018-12-07T15:42:12.786Z,45.07
2018-12-07T15:44:43.906Z,31.73
2018-12-07T15:47:14.096Z,33.63
2018-12-07T15:49:43.008Z,23.40
2018-12-07T15:52:11.736Z,27.60
2018-12-07T15:54:40.882Z,29.63
2018-12-07T15:57:10.912Z,27.83
2018-12-07T15:59:39.460Z,42.10
2018-12-07T16:02:08.110Z,34.47
2018-12-07T16:04:37.100Z,30.03
2018-12-07T16:07:06.412Z,32.57
2018-12-07T16:09:35.587Z,85.63
2018-12-07T16:12:04.562Z,41.50
2018-12-07T16:14:35.098Z,31.70
2018-12-07T16:17:05.408Z,26.67
2018-12-07T16:19:34.123Z,65.03
2018-12-07T16:22:02.670Z,39.80
2018-12-07T16:24:32.121Z,34.90
2018-12-07T16:27:01.556Z,30.30
2018-12-07T16:29:30.809Z,35.60
2018-12-07T16:31:59.425Z,37.33
2018-12-07T16:34:28.248Z,29.53
2018-12-07T16:36:57.051Z,33.60
2018-12-07T16:39:25.767Z,28.77
2018-12-07T16:41:54.380Z,27.37
2018-12-07T16:44:22.925Z,29.80
2018-12-07T16:46:52.161Z,31.00
2018-12-07T16:49:21.576Z,30.37
2018-12-07T16:54:29.809Z,29.47
2018-12-07T16:56:58.461Z,28.57
2018-12-07T16:59:28.693Z,29.30
2018-12-07T17:01:57.431Z,29.80
2018-12-07T17:04:27.094Z,31.97
2018-12-07T17:06:55.989Z,39.77
2018-12-07T17:09:25.676Z,31.93
2018-12-07T17:11:54.682Z,34.00
2018-12-07T17:14:23.808Z,28.13
2018-12-07T17:16:53.468Z,30.77
2018-12-07T17:19:23.170Z,33.93
2018-12-07T17:21:53.123Z,35.07
2018-12-07T17:24:23.452Z,30.43
2018-12-07T17:26:52.927Z,31.57
2018-12-07T17:29:22.606Z,31.40
2018-12-07T17:31:51.520Z,31.50
2018-12-07T17:34:21.618Z,131.93
2018-12-07T17:36:50.385Z,99.00
2018-12-07T17:39:19.158Z,45.97
2018-12-07T17:41:48.835Z,38.93
2018-12-07T17:44:19.821Z,33.77
2018-12-07T17:46:48.558Z,37.57
2018-12-07T17:49:17.157Z,34.23
2018-12-07T17:51:45.897Z,37.90
2018-12-07T17:54:14.642Z,33.57
2018-12-07T17:56:43.339Z,37.27
2018-12-07T17:59:12.693Z,33.83
2018-12-07T18:01:42.767Z,34.23
2018-12-07T18:04:12.341Z,36.57
2018-12-07T18:06:41.327Z,37.13
2018-12-07T18:09:11.419Z,40.20
2018-12-07T18:11:48.382Z,38.70
2018-12-07T18:14:18.143Z,36.83
2018-12-07T18:16:49.512Z,42.47
2018-12-07T18:19:18.726Z,38.77
2018-12-07T18:21:47.773Z,39.17
2018-12-07T18:24:17.731Z,37.57
2018-12-07T18:26:47.688Z,39.97
2018-12-07T18:29:16.328Z,32.83
2018-12-07T18:31:45.271Z,38.00
2018-12-07T18:34:15.361Z,38.27
2018-12-07T18:36:44.820Z,57.33
2018-12-07T18:39:14.374Z,59.77
2018-12-07T18:41:44.856Z,54.07
2018-12-07T18:44:14.295Z,49.40
2018-12-07T18:46:42.925Z,52.37
2018-12-07T18:49:11.721Z,41.87
2018-12-07T18:51:41.610Z,50.70
2018-12-07T18:54:10.757Z,41.07
2018-12-07T18:56:39.580Z,44.83
2018-12-07T18:59:09.133Z,42.27
2018-12-07T19:01:37.776Z,48.20
2018-12-07T19:04:06.503Z,44.90
2018-12-07T19:06:35.814Z,50.40
2018-12-07T19:09:08.448Z,40.33
2018-12-07T19:11:37.889Z,48.53
2018-12-07T19:14:10.592Z,43.23
2018-12-07T19:16:39.506Z,41.93
2018-12-07T19:19:08.885Z,42.70
2018-12-07T19:21:40.222Z,42.00
2018-12-07T19:24:13.352Z,41.20
2018-12-07T19:26:42.023Z,35.30
2018-12-07T19:29:11.992Z,35.60
2018-12-07T19:31:44.135Z,39.70
2018-12-07T19:34:13.811Z,40.20
2018-12-07T19:36:43.218Z,41.47
2018-12-07T19:39:11.938Z,41.97
2018-12-07T19:41:40.886Z,34.83
2018-12-07T19:44:10.915Z,34.63
2018-12-07T19:46:43.898Z,55.70
2018-12-07T19:49:13.612Z,47.07
2018-12-07T19:51:43.309Z,39.53
2018-12-07T19:54:12.574Z,43.20
2018-12-07T19:56:42.431Z,37.87
2018-12-07T19:59:11.993Z,38.87
2018-12-07T20:01:41.652Z,41.47
2018-12-07T20:04:11.036Z,47.30
2018-12-07T20:06:42.799Z,44.07
2018-12-07T20:09:16.071Z,42.10
2018-12-07T20:12:04.446Z,56.27
2018-12-07T20:14:36.116Z,56.37
2018-12-07T20:17:05.182Z,60.67
2018-12-07T20:19:34.688Z,56.20
2018-12-07T20:22:04.362Z,58.83
2018-12-07T20:24:33.332Z,55.63
2018-12-07T20:27:02.847Z,52.77
2018-12-07T20:29:32.008Z,54.00
2018-12-07T20:32:00.741Z,56.73
2018-12-07T20:34:29.691Z,52.03
2018-12-07T20:37:00.625Z,60.07
2018-12-07T20:39:29.815Z,56.23
2018-12-07T20:41:59.260Z,54.57
2018-12-07T20:44:28.339Z,48.97
2018-12-07T20:46:58.218Z,51.33
2018-12-07T20:49:28.725Z,53.47
2018-12-07T20:52:00.657Z,51.43
2018-12-07T20:54:29.994Z,54.03
2018-12-07T20:56:58.735Z,61.20
2018-12-07T20:59:28.929Z,65.30
2018-12-07T21:02:01.613Z,63.77
2018-12-07T21:04:33.995Z,68.27
2018-12-07T21:07:19.598Z,55.40
2018-12-07T21:09:48.873Z,53.80
2018-12-07T21:12:27.079Z,50.40
2018-12-07T21:14:57.485Z,44.50
2018-12-07T21:17:26.607Z,45.13
2018-12-07T21:19:56.583Z,41.07
2018-12-07T21:22:27.269Z,44.50
2018-12-07T21:24:56.226Z,44.80
2018-12-07T21:27:24.987Z,43.93
2018-12-07T21:30:04.803Z,52.70
2018-12-07T21:32:33.813Z,49.97
2018-12-07T21:35:06.178Z,51.70
2018-12-07T21:37:35.151Z,49.43
2018-12-07T21:40:11.338Z,48.30
2018-12-07T21:42:41.534Z,50.17
2018-12-07T21:45:11.002Z,52.00
2018-12-07T21:47:46.692Z,56.90
2018-12-07T21:50:17.779Z,50.03
2018-12-07T21:52:49.695Z,51.53
2018-12-07T21:55:18.550Z,48.10
2018-12-07T21:57:47.591Z,50.57
2018-12-07T22:00:16.471Z,44.87
2018-12-07T22:02:45.145Z,42.90
2018-12-07T22:05:13.709Z,44.37
2018-12-07T22:07:42.847Z,46.27
2018-12-07T22:10:12.201Z,43.40
2018-12-07T22:12:42.791Z,39.57
2018-12-07T22:15:11.602Z,41.40
2018-12-07T22:17:40.399Z,39.43
2018-12-07T22:20:13.688Z,43.30
2018-12-07T22:22:43.234Z,39.07
2018-12-07T22:25:11.757Z,48.80
2018-12-07T22:27:41.284Z,44.27
2018-12-07T22:30:11.157Z,36.20
2018-12-07T22:32:39.894Z,39.17
2018-12-07T22:35:08.509Z,35.03
2018-12-07T22:37:37.209Z,38.80
2018-12-07T22:40:06.849Z,39.37
2018-12-07T22:42:35.725Z,38.20
2018-12-07T22:45:05.364Z,43.10
2018-12-07T22:47:35.714Z,43.27
2018-12-07T22:50:04.698Z,41.10
2018-12-07T22:52:33.138Z,40.20
2018-12-07T22:55:01.640Z,43.27
2018-12-07T22:57:30.469Z,37.40
2018-12-07T22:59:58.893Z,40.03
2018-12-07T23:02:29.035Z,40.23
2018-12-07T23:04:57.737Z,37.43
2018-12-07T23:07:26.470Z,38.60
2018-12-07T23:09:54.957Z,41.43
2018-12-07T23:12:23.978Z,41.03
2018-12-07T23:14:52.480Z,39.70
2018-12-07T23:17:21.290Z,40.80
2018-12-07T23:19:49.993Z,44.60
2018-12-07T23:22:18.475Z,46.50
2018-12-07T23:24:47.250Z,49.27
2018-12-07T23:27:16.904Z,47.07
2018-12-07T23:29:45.754Z,46.77
2018-12-07T23:32:14.238Z,39.20
2018-12-07T23:34:42.917Z,44.00
2018-12-07T23:37:11.374Z,41.20
2018-12-07T23:39:41.572Z,48.10
2018-12-07T23:42:10.021Z,41.83
2018-12-07T23:44:38.695Z,44.17
2018-12-07T23:47:07.219Z,40.73
2018-12-07T23:49:35.658Z,41.57
2018-12-07T23:52:04.096Z,38.30
2018-12-07T23:54:32.561Z,44.57
2018-12-07T23:57:00.985Z,39.27
2018-12-07T23:59:29.470Z,40.07
